sensor_id;sensor_type;location;lat;lon;timestamp;P1;durP1;ratioP1;P2;durP2;ratioP2
12623;SDS011;6377;42.836;23.998;2022-07-22T00:02:05;5.70;;;4.25;;
12623;SDS011;6377;42.836;23.998;2022-07-22T00:04:33;5.65;;;4.28;;
12623;SDS011;6377;42.836;23.998;2022-07-22T00:07:00;3.70;;;3.35;;
12623;SDS011;6377;42.836;23.998;2022-07-22T00:09:28;4.82;;;4.00;;
12623;SDS011;6377;42.836;23.998;2022-07-22T00:11:56;4.45;;;3.22;;
12623;SDS011;6377;42.836;23.998;2022-07-22T00:14:23;4.82;;;3.88;;
12623;SDS011;6377;42.836;23.998;2022-07-22T00:16:51;6.00;;;3.75;;
12623;SDS011;6377;42.836;23.998;2022-07-22T00:19:20;4.07;;;3.33;;
12623;SDS011;6377;42.836;23.998;2022-07-22T00:21:49;4.32;;;3.92;;
12623;SDS011;6377;42.836;23.998;2022-07-22T00:24:17;4.30;;;3.50;;
12623;SDS011;6377;42.836;23.998;2022-07-22T00:26:44;5.28;;;3.78;;
12623;SDS011;6377;42.836;23.998;2022-07-22T00:29:12;4.10;;;3.70;;
12623;SDS011;6377;42.836;23.998;2022-07-22T00:31:40;7.40;;;4.22;;
12623;SDS011;6377;42.836;23.998;2022-07-22T00:34:07;4.85;;;3.45;;
12623;SDS011;6377;42.836;23.998;2022-07-22T00:36:36;4.80;;;3.58;;
12623;SDS011;6377;42.836;23.998;2022-07-22T00:39:04;4.18;;;3.72;;
12623;SDS011;6377;42.836;23.998;2022-07-22T00:41:31;3.72;;;3.42;;
12623;SDS011;6377;42.836;23.998;2022-07-22T00:43:59;3.30;;;2.97;;
12623;SDS011;6377;42.836;23.998;2022-07-22T00:46:28;4.97;;;3.50;;
12623;SDS011;6377;42.836;23.998;2022-07-22T00:48:57;6.00;;;3.90;;
12623;SDS011;6377;42.836;23.998;2022-07-22T00:51:26;3.88;;;3.47;;
12623;SDS011;6377;42.836;23.998;2022-07-22T00:53:57;4.70;;;3.63;;
12623;SDS011;6377;42.836;23.998;2022-07-22T00:56:25;5.35;;;3.50;;
12623;SDS011;6377;42.836;23.998;2022-07-22T00:58:54;4.63;;;3.70;;
12623;SDS011;6377;42.836;23.998;2022-07-22T01:01:25;5.13;;;3.58;;
12623;SDS011;6377;42.836;23.998;2022-07-22T01:03:53;4.95;;;3.38;;
12623;SDS011;6377;42.836;23.998;2022-07-22T01:06:21;4.53;;;3.60;;
12623;SDS011;6377;42.836;23.998;2022-07-22T01:08:49;5.10;;;4.05;;
12623;SDS011;6377;42.836;23.998;2022-07-22T01:11:19;3.70;;;3.30;;
12623;SDS011;6377;42.836;23.998;2022-07-22T01:13:47;4.57;;;3.70;;
12623;SDS011;6377;42.836;23.998;2022-07-22T01:16:15;5.05;;;3.60;;
12623;SDS011;6377;42.836;23.998;2022-07-22T01:18:44;5.18;;;3.97;;
12623;SDS011;6377;42.836;23.998;2022-07-22T01:21:14;5.65;;;3.92;;
12623;SDS011;6377;42.836;23.998;2022-07-22T01:23:42;4.80;;;3.58;;
12623;SDS011;6377;42.836;23.998;2022-07-22T01:26:10;5.65;;;3.53;;
12623;SDS011;6377;42.836;23.998;2022-07-22T01:28:38;6.03;;;4.00;;
12623;SDS011;6377;42.836;23.998;2022-07-22T01:31:06;4.25;;;3.60;;
12623;SDS011;6377;42.836;23.998;2022-07-22T01:33:34;4.97;;;4.05;;
12623;SDS011;6377;42.836;23.998;2022-07-22T01:36:03;3.97;;;3.40;;
12623;SDS011;6377;42.836;23.998;2022-07-22T01:38:33;5.18;;;3.60;;
12623;SDS011;6377;42.836;23.998;2022-07-22T01:41:01;5.32;;;3.83;;
12623;SDS011;6377;42.836;23.998;2022-07-22T01:43:29;3.90;;;3.38;;
12623;SDS011;6377;42.836;23.998;2022-07-22T01:45:57;5.38;;;4.13;;
12623;SDS011;6377;42.836;23.998;2022-07-22T01:48:24;4.13;;;3.58;;
12623;SDS011;6377;42.836;23.998;2022-07-22T01:50:52;4.80;;;3.97;;
12623;SDS011;6377;42.836;23.998;2022-07-22T01:53:20;4.03;;;3.10;;
12623;SDS011;6377;42.836;23.998;2022-07-22T01:55:49;5.30;;;3.97;;
12623;SDS011;6377;42.836;23.998;2022-07-22T01:58:17;7.72;;;4.43;;
12623;SDS011;6377;42.836;23.998;2022-07-22T02:00:44;4.07;;;3.63;;
12623;SDS011;6377;42.836;23.998;2022-07-22T02:03:12;4.10;;;3.70;;
12623;SDS011;6377;42.836;23.998;2022-07-22T02:05:40;5.38;;;4.00;;
12623;SDS011;6377;42.836;23.998;2022-07-22T02:08:08;6.45;;;3.72;;
12623;SDS011;6377;42.836;23.998;2022-07-22T02:10:37;4.43;;;4.03;;
12623;SDS011;6377;42.836;23.998;2022-07-22T02:13:07;8.73;;;3.95;;
12623;SDS011;6377;42.836;23.998;2022-07-22T02:15:34;5.20;;;4.40;;
12623;SDS011;6377;42.836;23.998;2022-07-22T02:18:09;5.45;;;3.75;;
12623;SDS011;6377;42.836;23.998;2022-07-22T02:20:37;4.30;;;3.90;;
12623;SDS011;6377;42.836;23.998;2022-07-22T02:23:07;4.68;;;4.00;;
12623;SDS011;6377;42.836;23.998;2022-07-22T02:25:36;5.88;;;3.88;;
12623;SDS011;6377;42.836;23.998;2022-07-22T02:28:04;7.20;;;4.07;;
12623;SDS011;6377;42.836;23.998;2022-07-22T02:30:33;4.55;;;3.75;;
12623;SDS011;6377;42.836;23.998;2022-07-22T02:33:01;4.70;;;4.03;;
12623;SDS011;6377;42.836;23.998;2022-07-22T02:35:29;6.72;;;3.90;;
12623;SDS011;6377;42.836;23.998;2022-07-22T02:37:57;4.07;;;3.70;;
12623;SDS011;6377;42.836;23.998;2022-07-22T02:40:24;4.68;;;3.83;;
12623;SDS011;6377;42.836;23.998;2022-07-22T02:42:52;3.67;;;3.38;;
12623;SDS011;6377;42.836;23.998;2022-07-22T02:45:21;6.55;;;3.58;;
12623;SDS011;6377;42.836;23.998;2022-07-22T02:47:50;5.38;;;3.65;;
12623;SDS011;6377;42.836;23.998;2022-07-22T02:50:19;4.75;;;3.92;;
12623;SDS011;6377;42.836;23.998;2022-07-22T02:52:48;5.85;;;4.20;;
12623;SDS011;6377;42.836;23.998;2022-07-22T02:55:16;5.63;;;3.90;;
12623;SDS011;6377;42.836;23.998;2022-07-22T02:57:45;3.95;;;3.55;;
12623;SDS011;6377;42.836;23.998;2022-07-22T03:00:13;4.78;;;3.85;;
12623;SDS011;6377;42.836;23.998;2022-07-22T03:02:42;5.70;;;3.85;;
12623;SDS011;6377;42.836;23.998;2022-07-22T03:05:10;4.10;;;3.55;;
12623;SDS011;6377;42.836;23.998;2022-07-22T03:07:38;4.40;;;4.00;;
12623;SDS011;6377;42.836;23.998;2022-07-22T03:10:06;7.75;;;4.20;;
12623;SDS011;6377;42.836;23.998;2022-07-22T03:12:34;5.78;;;3.88;;
12623;SDS011;6377;42.836;23.998;2022-07-22T03:15:03;4.10;;;3.67;;
12623;SDS011;6377;42.836;23.998;2022-07-22T03:17:33;4.80;;;3.80;;
12623;SDS011;6377;42.836;23.998;2022-07-22T03:20:02;7.47;;;4.47;;
12623;SDS011;6377;42.836;23.998;2022-07-22T03:22:30;4.95;;;4.10;;
12623;SDS011;6377;42.836;23.998;2022-07-22T03:24:58;4.43;;;3.95;;
12623;SDS011;6377;42.836;23.998;2022-07-22T03:27:26;6.85;;;4.10;;
12623;SDS011;6377;42.836;23.998;2022-07-22T03:29:53;4.97;;;4.47;;
12623;SDS011;6377;42.836;23.998;2022-07-22T03:32:21;9.18;;;4.50;;
12623;SDS011;6377;42.836;23.998;2022-07-22T03:34:49;6.68;;;5.07;;
12623;SDS011;6377;42.836;23.998;2022-07-22T03:37:19;8.90;;;4.80;;
12623;SDS011;6377;42.836;23.998;2022-07-22T03:39:46;7.95;;;4.32;;
12623;SDS011;6377;42.836;23.998;2022-07-22T03:42:16;6.97;;;4.00;;
12623;SDS011;6377;42.836;23.998;2022-07-22T03:44:43;4.68;;;3.78;;
12623;SDS011;6377;42.836;23.998;2022-07-22T03:47:12;6.30;;;4.70;;
12623;SDS011;6377;42.836;23.998;2022-07-22T03:49:43;6.35;;;4.70;;
12623;SDS011;6377;42.836;23.998;2022-07-22T03:52:10;6.47;;;4.50;;
12623;SDS011;6377;42.836;23.998;2022-07-22T03:54:40;7.55;;;4.25;;
12623;SDS011;6377;42.836;23.998;2022-07-22T03:57:08;5.13;;;4.20;;
12623;SDS011;6377;42.836;23.998;2022-07-22T03:59:36;4.90;;;4.18;;
12623;SDS011;6377;42.836;23.998;2022-07-22T04:02:04;8.23;;;4.13;;
12623;SDS011;6377;42.836;23.998;2022-07-22T04:04:31;4.35;;;3.70;;
12623;SDS011;6377;42.836;23.998;2022-07-22T04:06:59;6.53;;;4.28;;
12623;SDS011;6377;42.836;23.998;2022-07-22T04:09:26;5.78;;;4.53;;
12623;SDS011;6377;42.836;23.998;2022-07-22T04:11:55;4.88;;;4.18;;
12623;SDS011;6377;42.836;23.998;2022-07-22T04:14:23;7.82;;;5.13;;
12623;SDS011;6377;42.836;23.998;2022-07-22T04:16:50;6.05;;;4.30;;
12623;SDS011;6377;42.836;23.998;2022-07-22T04:19:18;4.75;;;4.25;;
12623;SDS011;6377;42.836;23.998;2022-07-22T04:21:46;6.13;;;4.40;;
12623;SDS011;6377;42.836;23.998;2022-07-22T04:24:13;8.00;;;5.93;;
12623;SDS011;6377;42.836;23.998;2022-07-22T04:26:41;6.97;;;5.00;;
12623;SDS011;6377;42.836;23.998;2022-07-22T04:29:10;7.60;;;5.03;;
12623;SDS011;6377;42.836;23.998;2022-07-22T04:31:37;6.00;;;5.10;;
12623;SDS011;6377;42.836;23.998;2022-07-22T04:34:05;6.68;;;4.43;;
12623;SDS011;6377;42.836;23.998;2022-07-22T04:36:32;4.95;;;4.40;;
12623;SDS011;6377;42.836;23.998;2022-07-22T04:39:00;6.63;;;4.28;;
12623;SDS011;6377;42.836;23.998;2022-07-22T04:41:27;8.75;;;4.43;;
12623;SDS011;6377;42.836;23.998;2022-07-22T04:43:55;6.53;;;4.25;;
12623;SDS011;6377;42.836;23.998;2022-07-22T04:46:23;6.18;;;4.75;;
12623;SDS011;6377;42.836;23.998;2022-07-22T04:48:51;9.73;;;4.53;;
12623;SDS011;6377;42.836;23.998;2022-07-22T04:51:18;5.70;;;4.05;;
12623;SDS011;6377;42.836;23.998;2022-07-22T04:53:46;8.32;;;4.22;;
12623;SDS011;6377;42.836;23.998;2022-07-22T04:56:13;5.60;;;4.20;;
12623;SDS011;6377;42.836;23.998;2022-07-22T04:58:41;9.20;;;4.28;;
12623;SDS011;6377;42.836;23.998;2022-07-22T05:01:08;5.18;;;4.40;;
12623;SDS011;6377;42.836;23.998;2022-07-22T05:03:38;5.70;;;4.30;;
12623;SDS011;6377;42.836;23.998;2022-07-22T05:06:06;8.27;;;4.80;;
12623;SDS011;6377;42.836;23.998;2022-07-22T05:08:34;10.63;;;4.93;;
12623;SDS011;6377;42.836;23.998;2022-07-22T05:11:02;7.35;;;5.30;;
12623;SDS011;6377;42.836;23.998;2022-07-22T05:13:29;10.15;;;5.25;;
12623;SDS011;6377;42.836;23.998;2022-07-22T05:15:57;10.77;;;4.80;;
12623;SDS011;6377;42.836;23.998;2022-07-22T05:18:28;9.02;;;5.45;;
12623;SDS011;6377;42.836;23.998;2022-07-22T05:20:58;6.47;;;4.95;;
12623;SDS011;6377;42.836;23.998;2022-07-22T05:23:25;7.47;;;5.32;;
12623;SDS011;6377;42.836;23.998;2022-07-22T05:25:53;7.32;;;5.18;;
12623;SDS011;6377;42.836;23.998;2022-07-22T05:28:20;9.23;;;5.70;;
12623;SDS011;6377;42.836;23.998;2022-07-22T05:30:48;8.77;;;5.35;;
12623;SDS011;6377;42.836;23.998;2022-07-22T05:33:15;7.50;;;4.97;;
12623;SDS011;6377;42.836;23.998;2022-07-22T05:35:42;6.88;;;5.10;;
12623;SDS011;6377;42.836;23.998;2022-07-22T05:38:11;8.73;;;5.38;;
12623;SDS011;6377;42.836;23.998;2022-07-22T05:40:39;5.70;;;4.90;;
12623;SDS011;6377;42.836;23.998;2022-07-22T05:43:06;7.75;;;5.50;;
12623;SDS011;6377;42.836;23.998;2022-07-22T05:45:34;10.52;;;5.18;;
12623;SDS011;6377;42.836;23.998;2022-07-22T05:48:01;8.63;;;5.18;;
12623;SDS011;6377;42.836;23.998;2022-07-22T05:50:29;11.32;;;5.63;;
12623;SDS011;6377;42.836;23.998;2022-07-22T05:52:56;11.48;;;5.70;;
12623;SDS011;6377;42.836;23.998;2022-07-22T05:55:25;8.52;;;6.00;;
12623;SDS011;6377;42.836;23.998;2022-07-22T05:57:53;7.60;;;5.65;;
12623;SDS011;6377;42.836;23.998;2022-07-22T06:00:20;10.25;;;5.93;;
12623;SDS011;6377;42.836;23.998;2022-07-22T06:02:48;7.90;;;5.63;;
12623;SDS011;6377;42.836;23.998;2022-07-22T06:05:15;14.18;;;6.65;;
12623;SDS011;6377;42.836;23.998;2022-07-22T06:07:43;9.00;;;5.85;;
12623;SDS011;6377;42.836;23.998;2022-07-22T06:10:10;7.90;;;5.68;;
12623;SDS011;6377;42.836;23.998;2022-07-22T06:12:39;9.70;;;5.00;;
12623;SDS011;6377;42.836;23.998;2022-07-22T06:15:07;6.85;;;4.88;;
12623;SDS011;6377;42.836;23.998;2022-07-22T06:17:35;7.32;;;4.50;;
12623;SDS011;6377;42.836;23.998;2022-07-22T06:20:03;5.57;;;4.15;;
12623;SDS011;6377;42.836;23.998;2022-07-22T06:22:31;4.57;;;4.05;;
12623;SDS011;6377;42.836;23.998;2022-07-22T06:24:59;7.57;;;3.97;;
12623;SDS011;6377;42.836;23.998;2022-07-22T06:27:26;6.10;;;4.10;;
12623;SDS011;6377;42.836;23.998;2022-07-22T06:29:58;6.40;;;4.10;;
12623;SDS011;6377;42.836;23.998;2022-07-22T06:32:26;7.53;;;3.90;;
12623;SDS011;6377;42.836;23.998;2022-07-22T06:34:53;10.43;;;4.28;;
12623;SDS011;6377;42.836;23.998;2022-07-22T06:37:20;6.63;;;4.10;;
12623;SDS011;6377;42.836;23.998;2022-07-22T06:39:48;8.07;;;4.90;;
12623;SDS011;6377;42.836;23.998;2022-07-22T06:42:15;6.55;;;4.07;;
12623;SDS011;6377;42.836;23.998;2022-07-22T06:44:43;6.45;;;4.18;;
12623;SDS011;6377;42.836;23.998;2022-07-22T06:47:12;7.47;;;4.05;;
12623;SDS011;6377;42.836;23.998;2022-07-22T06:49:39;7.38;;;4.00;;
12623;SDS011;6377;42.836;23.998;2022-07-22T06:52:07;6.28;;;4.07;;
12623;SDS011;6377;42.836;23.998;2022-07-22T06:54:34;5.43;;;4.45;;
12623;SDS011;6377;42.836;23.998;2022-07-22T06:57:02;7.82;;;4.68;;
12623;SDS011;6377;42.836;23.998;2022-07-22T06:59:29;6.03;;;4.38;;
12623;SDS011;6377;42.836;23.998;2022-07-22T07:01:57;7.43;;;4.63;;
12623;SDS011;6377;42.836;23.998;2022-07-22T07:04:26;5.82;;;4.28;;
12623;SDS011;6377;42.836;23.998;2022-07-22T07:06:53;4.95;;;3.92;;
12623;SDS011;6377;42.836;23.998;2022-07-22T07:09:21;4.93;;;4.25;;
12623;SDS011;6377;42.836;23.998;2022-07-22T07:11:48;8.32;;;4.22;;
12623;SDS011;6377;42.836;23.998;2022-07-22T07:14:16;5.60;;;4.10;;
12623;SDS011;6377;42.836;23.998;2022-07-22T07:16:43;6.97;;;3.95;;
12623;SDS011;6377;42.836;23.998;2022-07-22T07:19:11;7.60;;;4.43;;
12623;SDS011;6377;42.836;23.998;2022-07-22T07:21:40;6.22;;;4.10;;
12623;SDS011;6377;42.836;23.998;2022-07-22T07:24:07;6.90;;;4.10;;
12623;SDS011;6377;42.836;23.998;2022-07-22T07:26:35;6.20;;;4.22;;
12623;SDS011;6377;42.836;23.998;2022-07-22T07:29:02;14.73;;;7.30;;
12623;SDS011;6377;42.836;23.998;2022-07-22T07:31:30;10.95;;;4.47;;
12623;SDS011;6377;42.836;23.998;2022-07-22T07:33:57;11.23;;;4.63;;
12623;SDS011;6377;42.836;23.998;2022-07-22T07:36:25;9.90;;;4.30;;
12623;SDS011;6377;42.836;23.998;2022-07-22T07:38:54;8.73;;;4.82;;
12623;SDS011;6377;42.836;23.998;2022-07-22T07:41:21;9.70;;;4.30;;
12623;SDS011;6377;42.836;23.998;2022-07-22T07:43:49;6.22;;;4.30;;
12623;SDS011;6377;42.836;23.998;2022-07-22T07:46:17;6.65;;;4.22;;
12623;SDS011;6377;42.836;23.998;2022-07-22T07:48:44;6.47;;;4.32;;
12623;SDS011;6377;42.836;23.998;2022-07-22T07:51:13;5.40;;;4.18;;
12623;SDS011;6377;42.836;23.998;2022-07-22T07:53:41;6.70;;;4.00;;
12623;SDS011;6377;42.836;23.998;2022-07-22T07:56:10;4.97;;;3.97;;
12623;SDS011;6377;42.836;23.998;2022-07-22T07:58:38;7.10;;;4.03;;
12623;SDS011;6377;42.836;23.998;2022-07-22T08:01:08;8.23;;;3.90;;
12623;SDS011;6377;42.836;23.998;2022-07-22T08:03:35;10.77;;;4.38;;
12623;SDS011;6377;42.836;23.998;2022-07-22T08:06:03;7.15;;;3.97;;
12623;SDS011;6377;42.836;23.998;2022-07-22T08:08:31;8.43;;;3.95;;
12623;SDS011;6377;42.836;23.998;2022-07-22T08:10:58;5.63;;;3.65;;
12623;SDS011;6377;42.836;23.998;2022-07-22T08:13:28;5.28;;;3.95;;
12623;SDS011;6377;42.836;23.998;2022-07-22T08:15:57;6.28;;;3.83;;
12623;SDS011;6377;42.836;23.998;2022-07-22T08:18:25;5.43;;;3.55;;
12623;SDS011;6377;42.836;23.998;2022-07-22T08:20:54;7.05;;;4.05;;
12623;SDS011;6377;42.836;23.998;2022-07-22T08:23:22;9.10;;;4.07;;
12623;SDS011;6377;42.836;23.998;2022-07-22T08:25:50;5.65;;;3.70;;
12623;SDS011;6377;42.836;23.998;2022-07-22T08:28:18;8.70;;;4.20;;
12623;SDS011;6377;42.836;23.998;2022-07-22T08:30:47;5.07;;;4.22;;
12623;SDS011;6377;42.836;23.998;2022-07-22T08:33:14;4.35;;;3.67;;
12623;SDS011;6377;42.836;23.998;2022-07-22T08:35:42;6.65;;;3.90;;
12623;SDS011;6377;42.836;23.998;2022-07-22T08:38:09;7.13;;;3.88;;
12623;SDS011;6377;42.836;23.998;2022-07-22T08:40:37;5.35;;;4.00;;
12623;SDS011;6377;42.836;23.998;2022-07-22T08:43:04;5.75;;;4.07;;
12623;SDS011;6377;42.836;23.998;2022-07-22T08:45:32;7.97;;;4.00;;
12623;SDS011;6377;42.836;23.998;2022-07-22T08:48:01;6.50;;;3.42;;
12623;SDS011;6377;42.836;23.998;2022-07-22T08:50:30;7.47;;;4.38;;
12623;SDS011;6377;42.836;23.998;2022-07-22T08:52:58;7.03;;;3.60;;
12623;SDS011;6377;42.836;23.998;2022-07-22T08:55:26;8.43;;;4.07;;
12623;SDS011;6377;42.836;23.998;2022-07-22T08:57:53;9.35;;;6.50;;
12623;SDS011;6377;42.836;23.998;2022-07-22T09:00:21;7.20;;;4.30;;
12623;SDS011;6377;42.836;23.998;2022-07-22T09:02:49;5.88;;;3.90;;
12623;SDS011;6377;42.836;23.998;2022-07-22T09:05:18;6.50;;;4.20;;
12623;SDS011;6377;42.836;23.998;2022-07-22T09:07:46;6.35;;;4.10;;
12623;SDS011;6377;42.836;23.998;2022-07-22T09:10:14;6.13;;;3.83;;
12623;SDS011;6377;42.836;23.998;2022-07-22T09:12:50;4.40;;;4.00;;
12623;SDS011;6377;42.836;23.998;2022-07-22T09:15:27;5.13;;;3.70;;
12623;SDS011;6377;42.836;23.998;2022-07-22T09:17:55;7.45;;;3.58;;
12623;SDS011;6377;42.836;23.998;2022-07-22T09:20:26;6.70;;;3.90;;
12623;SDS011;6377;42.836;23.998;2022-07-22T09:22:54;5.07;;;3.92;;
12623;SDS011;6377;42.836;23.998;2022-07-22T09:25:23;5.13;;;3.88;;
12623;SDS011;6377;42.836;23.998;2022-07-22T09:27:55;4.30;;;3.85;;
12623;SDS011;6377;42.836;23.998;2022-07-22T09:30:38;6.03;;;4.00;;
12623;SDS011;6377;42.836;23.998;2022-07-22T09:33:07;7.05;;;3.97;;
12623;SDS011;6377;42.836;23.998;2022-07-22T09:35:37;5.50;;;3.83;;
12623;SDS011;6377;42.836;23.998;2022-07-22T09:38:06;5.32;;;4.38;;
12623;SDS011;6377;42.836;23.998;2022-07-22T09:40:36;7.85;;;4.30;;
12623;SDS011;6377;42.836;23.998;2022-07-22T09:43:14;8.27;;;4.25;;
12623;SDS011;6377;42.836;23.998;2022-07-22T09:45:44;4.97;;;4.35;;
12623;SDS011;6377;42.836;23.998;2022-07-22T09:48:14;7.05;;;4.55;;
12623;SDS011;6377;42.836;23.998;2022-07-22T09:50:50;4.05;;;3.63;;
12623;SDS011;6377;42.836;23.998;2022-07-22T09:53:21;5.57;;;3.80;;
12623;SDS011;6377;42.836;23.998;2022-07-22T09:55:56;5.80;;;3.75;;
12623;SDS011;6377;42.836;23.998;2022-07-22T09:58:24;4.35;;;3.65;;
12623;SDS011;6377;42.836;23.998;2022-07-22T10:00:53;5.57;;;3.63;;
12623;SDS011;6377;42.836;23.998;2022-07-22T10:03:23;5.25;;;3.90;;
12623;SDS011;6377;42.836;23.998;2022-07-22T10:05:55;5.22;;;3.80;;
12623;SDS011;6377;42.836;23.998;2022-07-22T10:08:24;6.13;;;3.65;;
12623;SDS011;6377;42.836;23.998;2022-07-22T10:10:53;5.05;;;3.95;;
12623;SDS011;6377;42.836;23.998;2022-07-22T10:13:25;6.10;;;3.80;;
12623;SDS011;6377;42.836;23.998;2022-07-22T10:15:53;4.57;;;4.05;;
12623;SDS011;6377;42.836;23.998;2022-07-22T10:18:22;7.32;;;4.03;;
12623;SDS011;6377;42.836;23.998;2022-07-22T10:21:01;6.50;;;4.10;;
12623;SDS011;6377;42.836;23.998;2022-07-22T10:23:30;5.80;;;4.05;;
12623;SDS011;6377;42.836;23.998;2022-07-22T10:25:59;4.20;;;3.42;;
12623;SDS011;6377;42.836;23.998;2022-07-22T10:28:28;6.80;;;3.83;;
12623;SDS011;6377;42.836;23.998;2022-07-22T10:33:51;5.60;;;4.13;;
12623;SDS011;6377;42.836;23.998;2022-07-22T10:36:31;4.97;;;3.85;;
12623;SDS011;6377;42.836;23.998;2022-07-22T10:39:13;5.72;;;3.53;;
12623;SDS011;6377;42.836;23.998;2022-07-22T10:41:41;5.95;;;3.33;;
12623;SDS011;6377;42.836;23.998;2022-07-22T10:44:10;7.47;;;3.92;;
12623;SDS011;6377;42.836;23.998;2022-07-22T10:46:48;4.20;;;3.40;;
12623;SDS011;6377;42.836;23.998;2022-07-22T10:49:18;6.18;;;3.35;;
12623;SDS011;6377;42.836;23.998;2022-07-22T10:57:43;6.78;;;3.20;;
12623;SDS011;6377;42.836;23.998;2022-07-22T11:00:12;6.28;;;3.70;;
12623;SDS011;6377;42.836;23.998;2022-07-22T11:02:40;7.25;;;3.70;;
12623;SDS011;6377;42.836;23.998;2022-07-22T11:05:08;5.13;;;3.30;;
12623;SDS011;6377;42.836;23.998;2022-07-22T11:07:41;5.72;;;3.50;;
12623;SDS011;6377;42.836;23.998;2022-07-22T11:10:10;4.55;;;3.35;;
12623;SDS011;6377;42.836;23.998;2022-07-22T11:12:40;8.20;;;3.53;;
12623;SDS011;6377;42.836;23.998;2022-07-22T11:15:09;3.53;;;3.17;;
12623;SDS011;6377;42.836;23.998;2022-07-22T11:17:38;5.13;;;3.20;;
12623;SDS011;6377;42.836;23.998;2022-07-22T11:20:07;4.90;;;3.50;;
12623;SDS011;6377;42.836;23.998;2022-07-22T11:22:37;3.42;;;3.13;;
12623;SDS011;6377;42.836;23.998;2022-07-22T11:25:07;5.68;;;3.50;;
12623;SDS011;6377;42.836;23.998;2022-07-22T11:27:37;7.53;;;3.75;;
12623;SDS011;6377;42.836;23.998;2022-07-22T11:30:05;4.80;;;3.30;;
12623;SDS011;6377;42.836;23.998;2022-07-22T11:32:40;7.07;;;3.40;;
12623;SDS011;6377;42.836;23.998;2022-07-22T11:35:10;4.82;;;3.35;;
12623;SDS011;6377;42.836;23.998;2022-07-22T11:37:38;4.95;;;3.42;;
12623;SDS011;6377;42.836;23.998;2022-07-22T11:40:08;4.47;;;3.28;;
12623;SDS011;6377;42.836;23.998;2022-07-22T11:42:37;4.10;;;3.20;;
12623;SDS011;6377;42.836;23.998;2022-07-22T11:45:05;5.90;;;3.38;;
12623;SDS011;6377;42.836;23.998;2022-07-22T11:47:33;4.15;;;3.30;;
12623;SDS011;6377;42.836;23.998;2022-07-22T11:50:00;5.03;;;3.10;;
12623;SDS011;6377;42.836;23.998;2022-07-22T11:52:28;4.50;;;3.10;;
12623;SDS011;6377;42.836;23.998;2022-07-22T11:54:55;4.55;;;3.17;;
12623;SDS011;6377;42.836;23.998;2022-07-22T11:57:25;6.45;;;3.20;;
12623;SDS011;6377;42.836;23.998;2022-07-22T11:59:52;4.22;;;3.30;;
12623;SDS011;6377;42.836;23.998;2022-07-22T12:02:20;4.25;;;3.20;;
12623;SDS011;6377;42.836;23.998;2022-07-22T12:04:48;4.03;;;3.28;;
12623;SDS011;6377;42.836;23.998;2022-07-22T12:07:15;7.57;;;3.65;;
12623;SDS011;6377;42.836;23.998;2022-07-22T12:09:44;3.58;;;3.28;;
12623;SDS011;6377;42.836;23.998;2022-07-22T12:12:11;4.25;;;3.40;;
12623;SDS011;6377;42.836;23.998;2022-07-22T12:14:45;5.40;;;3.65;;
12623;SDS011;6377;42.836;23.998;2022-07-22T12:17:14;5.07;;;3.08;;
12623;SDS011;6377;42.836;23.998;2022-07-22T12:19:43;4.97;;;3.50;;
12623;SDS011;6377;42.836;23.998;2022-07-22T12:22:11;6.13;;;3.47;;
12623;SDS011;6377;42.836;23.998;2022-07-22T12:24:46;5.07;;;3.38;;
12623;SDS011;6377;42.836;23.998;2022-07-22T12:27:24;4.93;;;3.30;;
12623;SDS011;6377;42.836;23.998;2022-07-22T12:29:53;4.38;;;3.40;;
12623;SDS011;6377;42.836;23.998;2022-07-22T12:32:24;4.30;;;3.42;;
12623;SDS011;6377;42.836;23.998;2022-07-22T12:34:55;4.72;;;3.55;;
12623;SDS011;6377;42.836;23.998;2022-07-22T12:37:23;8.18;;;3.28;;
12623;SDS011;6377;42.836;23.998;2022-07-22T12:39:53;5.15;;;3.22;;
12623;SDS011;6377;42.836;23.998;2022-07-22T12:42:22;5.63;;;3.50;;
12623;SDS011;6377;42.836;23.998;2022-07-22T12:44:51;3.72;;;3.20;;
12623;SDS011;6377;42.836;23.998;2022-07-22T12:47:38;4.22;;;3.35;;
12623;SDS011;6377;42.836;23.998;2022-07-22T12:50:21;5.97;;;3.38;;
12623;SDS011;6377;42.836;23.998;2022-07-22T12:52:50;5.80;;;3.70;;
12623;SDS011;6377;42.836;23.998;2022-07-22T12:55:19;3.30;;;3.00;;
12623;SDS011;6377;42.836;23.998;2022-07-22T12:57:46;4.22;;;3.20;;
12623;SDS011;6377;42.836;23.998;2022-07-22T13:00:20;4.13;;;3.10;;
12623;SDS011;6377;42.836;23.998;2022-07-22T13:02:48;3.67;;;3.30;;
12623;SDS011;6377;42.836;23.998;2022-07-22T13:05:17;3.50;;;3.20;;
12623;SDS011;6377;42.836;23.998;2022-07-22T13:07:45;4.65;;;3.33;;
12623;SDS011;6377;42.836;23.998;2022-07-22T13:10:13;4.28;;;3.22;;
12623;SDS011;6377;42.836;23.998;2022-07-22T13:12:42;4.75;;;3.08;;
12623;SDS011;6377;42.836;23.998;2022-07-22T13:15:10;5.80;;;3.60;;
12623;SDS011;6377;42.836;23.998;2022-07-22T13:17:40;4.20;;;3.78;;
12623;SDS011;6377;42.836;23.998;2022-07-22T13:20:09;4.13;;;3.50;;
12623;SDS011;6377;42.836;23.998;2022-07-22T13:22:39;4.70;;;3.28;;
12623;SDS011;6377;42.836;23.998;2022-07-22T13:25:07;4.72;;;3.42;;
12623;SDS011;6377;42.836;23.998;2022-07-22T13:27:35;5.05;;;3.28;;
12623;SDS011;6377;42.836;23.998;2022-07-22T13:30:03;8.50;;;3.33;;
12623;SDS011;6377;42.836;23.998;2022-07-22T13:32:31;6.75;;;3.90;;
12623;SDS011;6377;42.836;23.998;2022-07-22T13:35:01;5.95;;;3.45;;
12623;SDS011;6377;42.836;23.998;2022-07-22T13:37:28;6.13;;;3.50;;
12623;SDS011;6377;42.836;23.998;2022-07-22T13:39:56;4.38;;;3.10;;
12623;SDS011;6377;42.836;23.998;2022-07-22T13:42:24;4.00;;;3.20;;
12623;SDS011;6377;42.836;23.998;2022-07-22T13:44:51;4.05;;;3.15;;
12623;SDS011;6377;42.836;23.998;2022-07-22T13:47:20;7.25;;;3.72;;
12623;SDS011;6377;42.836;23.998;2022-07-22T13:49:48;3.65;;;3.30;;
12623;SDS011;6377;42.836;23.998;2022-07-22T13:52:17;6.25;;;4.35;;
12623;SDS011;6377;42.836;23.998;2022-07-22T13:54:45;6.57;;;4.05;;
12623;SDS011;6377;42.836;23.998;2022-07-22T13:57:12;4.57;;;3.45;;
12623;SDS011;6377;42.836;23.998;2022-07-22T13:59:40;5.72;;;3.50;;
12623;SDS011;6377;42.836;23.998;2022-07-22T14:02:07;3.60;;;3.30;;
12623;SDS011;6377;42.836;23.998;2022-07-22T14:04:35;4.07;;;3.42;;
12623;SDS011;6377;42.836;23.998;2022-07-22T14:07:03;5.97;;;3.55;;
12623;SDS011;6377;42.836;23.998;2022-07-22T14:09:32;8.80;;;3.80;;
12623;SDS011;6377;42.836;23.998;2022-07-22T14:11:59;6.10;;;3.67;;
12623;SDS011;6377;42.836;23.998;2022-07-22T14:14:27;4.00;;;3.33;;
12623;SDS011;6377;42.836;23.998;2022-07-22T14:16:54;7.10;;;3.75;;
12623;SDS011;6377;42.836;23.998;2022-07-22T14:19:22;4.50;;;3.05;;
12623;SDS011;6377;42.836;23.998;2022-07-22T14:21:49;10.10;;;4.20;;
12623;SDS011;6377;42.836;23.998;2022-07-22T14:24:17;5.18;;;3.70;;
12623;SDS011;6377;42.836;23.998;2022-07-22T14:26:47;5.45;;;3.38;;
12623;SDS011;6377;42.836;23.998;2022-07-22T14:29:14;3.78;;;3.40;;
12623;SDS011;6377;42.836;23.998;2022-07-22T14:31:42;8.02;;;3.97;;
12623;SDS011;6377;42.836;23.998;2022-07-22T14:34:09;3.90;;;3.38;;
12623;SDS011;6377;42.836;23.998;2022-07-22T14:36:37;7.07;;;4.30;;
12623;SDS011;6377;42.836;23.998;2022-07-22T14:39:04;7.10;;;4.28;;
12623;SDS011;6377;42.836;23.998;2022-07-22T14:41:32;6.15;;;4.60;;
12623;SDS011;6377;42.836;23.998;2022-07-22T14:44:01;6.03;;;3.55;;
12623;SDS011;6377;42.836;23.998;2022-07-22T14:46:29;6.45;;;3.80;;
12623;SDS011;6377;42.836;23.998;2022-07-22T14:48:57;6.22;;;4.10;;
12623;SDS011;6377;42.836;23.998;2022-07-22T14:51:24;5.63;;;4.78;;
12623;SDS011;6377;42.836;23.998;2022-07-22T14:53:55;4.35;;;3.72;;
12623;SDS011;6377;42.836;23.998;2022-07-22T14:56:22;4.55;;;3.70;;
12623;SDS011;6377;42.836;23.998;2022-07-22T14:58:50;4.20;;;3.78;;
12623;SDS011;6377;42.836;23.998;2022-07-22T15:01:20;5.63;;;3.80;;
12623;SDS011;6377;42.836;23.998;2022-07-22T15:03:47;4.72;;;3.30;;
12623;SDS011;6377;42.836;23.998;2022-07-22T15:06:21;10.40;;;5.80;;